sensor_id;sensor_type;location;lat;lon;timestamp;P1;durP1;ratioP1;P2;durP2;ratioP2
18206;SDS011;9229;52.354;20.886;2022-07-06T00:04:37;9.15;;;8.25;;
18206;SDS011;9229;52.354;20.886;2022-07-06T00:09:38;9.98;;;8.95;;
18206;SDS011;9229;52.354;20.886;2022-07-06T00:14:42;9.15;;;8.35;;
18206;SDS011;9229;52.354;20.886;2022-07-06T00:19:43;9.80;;;8.90;;
18206;SDS011;9229;52.354;20.886;2022-07-06T00:24:45;9.05;;;8.15;;
18206;SDS011;9229;52.354;20.886;2022-07-06T00:29:48;9.48;;;8.48;;
18206;SDS011;9229;52.354;20.886;2022-07-06T00:34:50;11.23;;;9.18;;
18206;SDS011;9229;52.354;20.886;2022-07-06T00:39:52;9.32;;;8.52;;
18206;SDS011;9229;52.354;20.886;2022-07-06T00:44:55;12.25;;;8.63;;
18206;SDS011;9229;52.354;20.886;2022-07-06T00:49:57;9.55;;;8.65;;
18206;SDS011;9229;52.354;20.886;2022-07-06T00:55:21;10.00;;;9.05;;
18206;SDS011;9229;52.354;20.886;2022-07-06T01:00:26;9.23;;;8.02;;
18206;SDS011;9229;52.354;20.886;2022-07-06T01:05:32;13.27;;;8.60;;
18206;SDS011;9229;52.354;20.886;2022-07-06T01:10:42;10.65;;;8.52;;
18206;SDS011;9229;52.354;20.886;2022-07-06T01:15:46;13.48;;;8.65;;
18206;SDS011;9229;52.354;20.886;2022-07-06T01:20:49;11.23;;;8.77;;
18206;SDS011;9229;52.354;20.886;2022-07-06T01:25:54;9.43;;;8.45;;
18206;SDS011;9229;52.354;20.886;2022-07-06T01:30:56;11.13;;;8.95;;
18206;SDS011;9229;52.354;20.886;2022-07-06T01:36:00;11.45;;;9.32;;
18206;SDS011;9229;52.354;20.886;2022-07-06T01:41:04;11.15;;;8.95;;
18206;SDS011;9229;52.354;20.886;2022-07-06T01:46:06;12.70;;;9.50;;
18206;SDS011;9229;52.354;20.886;2022-07-06T01:51:09;11.23;;;8.73;;
18206;SDS011;9229;52.354;20.886;2022-07-06T01:56:12;9.93;;;8.93;;
18206;SDS011;9229;52.354;20.886;2022-07-06T02:01:17;9.00;;;8.27;;
18206;SDS011;9229;52.354;20.886;2022-07-06T02:06:21;10.10;;;9.15;;
18206;SDS011;9229;52.354;20.886;2022-07-06T02:11:23;9.43;;;8.48;;
18206;SDS011;9229;52.354;20.886;2022-07-06T02:16:26;9.88;;;8.88;;
18206;SDS011;9229;52.354;20.886;2022-07-06T02:21:30;9.02;;;8.20;;
18206;SDS011;9229;52.354;20.886;2022-07-06T02:26:32;8.95;;;8.15;;
18206;SDS011;9229;52.354;20.886;2022-07-06T02:31:33;10.88;;;9.50;;
18206;SDS011;9229;52.354;20.886;2022-07-06T02:36:37;10.38;;;9.13;;
18206;SDS011;9229;52.354;20.886;2022-07-06T02:41:39;9.80;;;8.80;;
18206;SDS011;9229;52.354;20.886;2022-07-06T02:46:41;9.95;;;8.95;;
18206;SDS011;9229;52.354;20.886;2022-07-06T02:51:44;10.75;;;9.30;;
18206;SDS011;9229;52.354;20.886;2022-07-06T02:56:47;9.85;;;8.85;;
18206;SDS011;9229;52.354;20.886;2022-07-06T03:01:53;13.00;;;9.40;;
18206;SDS011;9229;52.354;20.886;2022-07-06T03:06:57;10.60;;;9.60;;
18206;SDS011;9229;52.354;20.886;2022-07-06T03:11:59;10.65;;;9.65;;
18206;SDS011;9229;52.354;20.886;2022-07-06T03:17:03;10.75;;;9.68;;
18206;SDS011;9229;52.354;20.886;2022-07-06T03:22:06;10.00;;;8.90;;
18206;SDS011;9229;52.354;20.886;2022-07-06T03:27:08;11.95;;;9.27;;
18206;SDS011;9229;52.354;20.886;2022-07-06T03:32:10;11.23;;;10.10;;
18206;SDS011;9229;52.354;20.886;2022-07-06T03:37:14;11.02;;;9.88;;
18206;SDS011;9229;52.354;20.886;2022-07-06T03:42:17;11.32;;;9.95;;
18206;SDS011;9229;52.354;20.886;2022-07-06T03:47:19;10.95;;;10.02;;
18206;SDS011;9229;52.354;20.886;2022-07-06T03:52:23;14.27;;;11.20;;
18206;SDS011;9229;52.354;20.886;2022-07-06T03:57:28;11.85;;;10.43;;
18206;SDS011;9229;52.354;20.886;2022-07-06T04:02:34;11.32;;;10.13;;
18206;SDS011;9229;52.354;20.886;2022-07-06T04:07:37;10.82;;;9.80;;
18206;SDS011;9229;52.354;20.886;2022-07-06T04:12:41;11.35;;;10.35;;
18206;SDS011;9229;52.354;20.886;2022-07-06T04:17:43;13.27;;;11.02;;
18206;SDS011;9229;52.354;20.886;2022-07-06T04:23:10;14.63;;;10.98;;
18206;SDS011;9229;52.354;20.886;2022-07-06T04:28:12;12.25;;;11.02;;
18206;SDS011;9229;52.354;20.886;2022-07-06T04:33:15;11.35;;;10.27;;
18206;SDS011;9229;52.354;20.886;2022-07-06T04:38:20;12.50;;;11.18;;
18206;SDS011;9229;52.354;20.886;2022-07-06T04:43:24;12.15;;;10.80;;
18206;SDS011;9229;52.354;20.886;2022-07-06T04:48:26;12.63;;;11.43;;
18206;SDS011;9229;52.354;20.886;2022-07-06T04:53:31;16.30;;;10.40;;
18206;SDS011;9229;52.354;20.886;2022-07-06T04:58:33;10.50;;;9.50;;
18206;SDS011;9229;52.354;20.886;2022-07-06T05:03:36;9.73;;;8.57;;
18206;SDS011;9229;52.354;20.886;2022-07-06T05:08:43;9.07;;;7.35;;
18206;SDS011;9229;52.354;20.886;2022-07-06T05:13:45;9.23;;;6.15;;
18206;SDS011;9229;52.354;20.886;2022-07-06T05:18:47;9.38;;;5.75;;
18206;SDS011;9229;52.354;20.886;2022-07-06T05:23:51;6.03;;;5.55;;
18206;SDS011;9229;52.354;20.886;2022-07-06T05:28:54;7.47;;;6.20;;
18206;SDS011;9229;52.354;20.886;2022-07-06T05:33:58;11.27;;;6.15;;
18206;SDS011;9229;52.354;20.886;2022-07-06T05:39:04;5.78;;;5.28;;
18206;SDS011;9229;52.354;20.886;2022-07-06T05:44:06;7.25;;;5.75;;
18206;SDS011;9229;52.354;20.886;2022-07-06T05:49:08;11.93;;;4.40;;
18206;SDS011;9229;52.354;20.886;2022-07-06T05:54:29;6.68;;;4.18;;
18206;SDS011;9229;52.354;20.886;2022-07-06T05:59:31;7.60;;;4.22;;
18206;SDS011;9229;52.354;20.886;2022-07-06T06:04:34;6.13;;;4.18;;
18206;SDS011;9229;52.354;20.886;2022-07-06T06:09:37;3.30;;;3.10;;
18206;SDS011;9229;52.354;20.886;2022-07-06T06:14:40;8.38;;;3.35;;
18206;SDS011;9229;52.354;20.886;2022-07-06T06:19:42;4.97;;;3.25;;
18206;SDS011;9229;52.354;20.886;2022-07-06T06:24:45;4.68;;;3.20;;
18206;SDS011;9229;52.354;20.886;2022-07-06T06:29:47;4.45;;;3.50;;
18206;SDS011;9229;52.354;20.886;2022-07-06T06:34:49;3.75;;;3.45;;
18206;SDS011;9229;52.354;20.886;2022-07-06T06:39:52;4.00;;;3.35;;
18206;SDS011;9229;52.354;20.886;2022-07-06T06:44:54;3.03;;;2.70;;
18206;SDS011;9229;52.354;20.886;2022-07-06T06:49:56;2.35;;;2.25;;
18206;SDS011;9229;52.354;20.886;2022-07-06T06:54:59;2.67;;;2.47;;
18206;SDS011;9229;52.354;20.886;2022-07-06T07:00:01;2.53;;;2.33;;
18206;SDS011;9229;52.354;20.886;2022-07-06T07:05:03;2.25;;;2.17;;
18206;SDS011;9229;52.354;20.886;2022-07-06T07:10:07;1.85;;;1.80;;
18206;SDS011;9229;52.354;20.886;2022-07-06T07:15:10;1.65;;;1.55;;
18206;SDS011;9229;52.354;20.886;2022-07-06T07:20:12;2.50;;;1.55;;
18206;SDS011;9229;52.354;20.886;2022-07-06T07:25:15;1.90;;;1.70;;
18206;SDS011;9229;52.354;20.886;2022-07-06T07:30:17;1.55;;;1.45;;
18206;SDS011;9229;52.354;20.886;2022-07-06T07:35:19;1.45;;;1.42;;
18206;SDS011;9229;52.354;20.886;2022-07-06T07:40:22;2.80;;;2.03;;
18206;SDS011;9229;52.354;20.886;2022-07-06T07:45:24;2.03;;;1.42;;
18206;SDS011;9229;52.354;20.886;2022-07-06T07:50:26;1.30;;;1.30;;
18206;SDS011;9229;52.354;20.886;2022-07-06T07:55:31;1.38;;;1.38;;
18206;SDS011;9229;52.354;20.886;2022-07-06T08:00:32;1.55;;;1.20;;
18206;SDS011;9229;52.354;20.886;2022-07-06T08:05:34;1.58;;;1.00;;
18206;SDS011;9229;52.354;20.886;2022-07-06T08:10:38;1.10;;;1.10;;
18206;SDS011;9229;52.354;20.886;2022-07-06T08:15:39;1.27;;;1.17;;
18206;SDS011;9229;52.354;20.886;2022-07-06T08:20:42;1.75;;;1.00;;
18206;SDS011;9229;52.354;20.886;2022-07-06T08:25:45;1.55;;;1.20;;
18206;SDS011;9229;52.354;20.886;2022-07-06T08:30:47;0.90;;;0.90;;
18206;SDS011;9229;52.354;20.886;2022-07-06T08:35:49;0.80;;;0.80;;
18206;SDS011;9229;52.354;20.886;2022-07-06T08:40:52;1.15;;;1.00;;
18206;SDS011;9229;52.354;20.886;2022-07-06T08:45:55;1.15;;;1.00;;
18206;SDS011;9229;52.354;20.886;2022-07-06T08:50:58;3.50;;;0.88;;
18206;SDS011;9229;52.354;20.886;2022-07-06T08:56:02;4.38;;;1.00;;
18206;SDS011;9229;52.354;20.886;2022-07-06T09:01:04;0.85;;;0.85;;
18206;SDS011;9229;52.354;20.886;2022-07-06T09:06:07;2.78;;;0.88;;
18206;SDS011;9229;52.354;20.886;2022-07-06T09:11:12;0.85;;;0.70;;
18206;SDS011;9229;52.354;20.886;2022-07-06T09:16:15;2.38;;;0.70;;
18206;SDS011;9229;52.354;20.886;2022-07-06T09:21:21;1.63;;;0.95;;
18206;SDS011;9229;52.354;20.886;2022-07-06T09:26:26;0.60;;;0.60;;
18206;SDS011;9229;52.354;20.886;2022-07-06T09:31:28;0.75;;;0.75;;
18206;SDS011;9229;52.354;20.886;2022-07-06T09:36:37;1.13;;;1.00;;
18206;SDS011;9229;52.354;20.886;2022-07-06T09:41:41;2.92;;;0.90;;
18206;SDS011;9229;52.354;20.886;2022-07-06T09:46:45;1.92;;;0.80;;
18206;SDS011;9229;52.354;20.886;2022-07-06T09:51:48;0.70;;;0.70;;
18206;SDS011;9229;52.354;20.886;2022-07-06T09:56:53;0.90;;;0.90;;
18206;SDS011;9229;52.354;20.886;2022-07-06T10:01:57;0.77;;;0.77;;
18206;SDS011;9229;52.354;20.886;2022-07-06T10:07:01;3.05;;;0.70;;
18206;SDS011;9229;52.354;20.886;2022-07-06T10:12:05;2.72;;;0.88;;
18206;SDS011;9229;52.354;20.886;2022-07-06T10:17:08;1.42;;;0.70;;
18206;SDS011;9229;52.354;20.886;2022-07-06T10:22:11;0.70;;;0.70;;
18206;SDS011;9229;52.354;20.886;2022-07-06T10:27:14;1.02;;;0.70;;
18206;SDS011;9229;52.354;20.886;2022-07-06T10:32:17;1.33;;;1.23;;
18206;SDS011;9229;52.354;20.886;2022-07-06T10:37:22;0.80;;;0.80;;
18206;SDS011;9229;52.354;20.886;2022-07-06T10:42:45;2.47;;;0.80;;
18206;SDS011;9229;52.354;20.886;2022-07-06T10:53:21;0.93;;;0.93;;
18206;SDS011;9229;52.354;20.886;2022-07-06T10:58:38;0.70;;;0.70;;
18206;SDS011;9229;52.354;20.886;2022-07-06T11:03:48;3.50;;;0.90;;
18206;SDS011;9229;52.354;20.886;2022-07-06T11:08:54;0.93;;;0.73;;
18206;SDS011;9229;52.354;20.886;2022-07-06T11:13:59;0.98;;;0.80;;
18206;SDS011;9229;52.354;20.886;2022-07-06T11:19:04;0.80;;;0.80;;
18206;SDS011;9229;52.354;20.886;2022-07-06T11:24:08;1.85;;;1.35;;
18206;SDS011;9229;52.354;20.886;2022-07-06T11:29:13;5.00;;;1.17;;
18206;SDS011;9229;52.354;20.886;2022-07-06T11:34:17;0.80;;;0.80;;
18206;SDS011;9229;52.354;20.886;2022-07-06T11:39:21;1.85;;;0.90;;
18206;SDS011;9229;52.354;20.886;2022-07-06T11:44:24;1.00;;;1.00;;
18206;SDS011;9229;52.354;20.886;2022-07-06T11:49:35;1.48;;;0.73;;
18206;SDS011;9229;52.354;20.886;2022-07-06T11:54:41;0.70;;;0.70;;
18206;SDS011;9229;52.354;20.886;2022-07-06T11:59:44;2.33;;;0.80;;
18206;SDS011;9229;52.354;20.886;2022-07-06T12:04:47;0.70;;;0.70;;
18206;SDS011;9229;52.354;20.886;2022-07-06T12:09:50;2.50;;;0.90;;
18206;SDS011;9229;52.354;20.886;2022-07-06T12:14:53;0.70;;;0.70;;
18206;SDS011;9229;52.354;20.886;2022-07-06T12:19:55;1.08;;;0.98;;
18206;SDS011;9229;52.354;20.886;2022-07-06T12:24:58;2.05;;;0.80;;
18206;SDS011;9229;52.354;20.886;2022-07-06T12:30:08;0.77;;;0.77;;
18206;SDS011;9229;52.354;20.886;2022-07-06T12:35:11;1.40;;;0.88;;
18206;SDS011;9229;52.354;20.886;2022-07-06T12:40:14;1.58;;;1.23;;
18206;SDS011;9229;52.354;20.886;2022-07-06T12:45:18;1.45;;;1.02;;
18206;SDS011;9229;52.354;20.886;2022-07-06T12:50:20;1.00;;;1.00;;
18206;SDS011;9229;52.354;20.886;2022-07-06T12:55:32;4.13;;;1.00;;
18206;SDS011;9229;52.354;20.886;2022-07-06T13:00:44;0.80;;;0.80;;
18206;SDS011;9229;52.354;20.886;2022-07-06T13:05:49;3.30;;;1.13;;
18206;SDS011;9229;52.354;20.886;2022-07-06T13:10:51;1.50;;;1.20;;
18206;SDS011;9229;52.354;20.886;2022-07-06T13:15:54;1.27;;;1.02;;
18206;SDS011;9229;52.354;20.886;2022-07-06T13:20:56;1.58;;;1.30;;
18206;SDS011;9229;52.354;20.886;2022-07-06T13:25:58;2.97;;;1.20;;
18206;SDS011;9229;52.354;20.886;2022-07-06T13:31:01;3.22;;;1.38;;
18206;SDS011;9229;52.354;20.886;2022-07-06T13:36:03;9.77;;;1.50;;
18206;SDS011;9229;52.354;20.886;2022-07-06T13:41:06;0.93;;;0.90;;
18206;SDS011;9229;52.354;20.886;2022-07-06T13:46:09;1.48;;;1.10;;
18206;SDS011;9229;52.354;20.886;2022-07-06T13:51:11;1.10;;;1.10;;
18206;SDS011;9229;52.354;20.886;2022-07-06T13:56:13;1.30;;;1.20;;
18206;SDS011;9229;52.354;20.886;2022-07-06T14:01:16;1.25;;;1.17;;
18206;SDS011;9229;52.354;20.886;2022-07-06T14:06:19;1.38;;;1.27;;
18206;SDS011;9229;52.354;20.886;2022-07-06T14:11:21;2.50;;;1.35;;
18206;SDS011;9229;52.354;20.886;2022-07-06T14:16:24;2.40;;;1.70;;
18206;SDS011;9229;52.354;20.886;2022-07-06T14:21:26;2.33;;;1.60;;
18206;SDS011;9229;52.354;20.886;2022-07-06T14:26:28;4.38;;;2.00;;
18206;SDS011;9229;52.354;20.886;2022-07-06T14:31:31;1.20;;;1.20;;
18206;SDS011;9229;52.354;20.886;2022-07-06T14:36:35;2.75;;;1.58;;
18206;SDS011;9229;52.354;20.886;2022-07-06T14:41:38;2.55;;;1.40;;
18206;SDS011;9229;52.354;20.886;2022-07-06T14:46:41;3.08;;;1.35;;
18206;SDS011;9229;52.354;20.886;2022-07-06T14:51:43;1.27;;;1.17;;
18206;SDS011;9229;52.354;20.886;2022-07-06T14:56:45;1.92;;;1.45;;
18206;SDS011;9229;52.354;20.886;2022-07-06T15:01:50;2.88;;;1.45;;
18206;SDS011;9229;52.354;20.886;2022-07-06T15:06:53;5.05;;;1.67;;
18206;SDS011;9229;52.354;20.886;2022-07-06T15:11:55;3.05;;;1.60;;
18206;SDS011;9229;52.354;20.886;2022-07-06T15:16:58;2.13;;;1.70;;
18206;SDS011;9229;52.354;20.886;2022-07-06T15:22:00;1.60;;;1.50;;
18206;SDS011;9229;52.354;20.886;2022-07-06T15:27:02;4.18;;;1.67;;
18206;SDS011;9229;52.354;20.886;2022-07-06T15:32:06;1.50;;;1.50;;
18206;SDS011;9229;52.354;20.886;2022-07-06T15:37:08;1.80;;;1.70;;
18206;SDS011;9229;52.354;20.886;2022-07-06T15:42:10;2.28;;;1.58;;
18206;SDS011;9229;52.354;20.886;2022-07-06T15:47:13;6.22;;;1.90;;
18206;SDS011;9229;52.354;20.886;2022-07-06T15:52:15;2.40;;;2.30;;
18206;SDS011;9229;52.354;20.886;2022-07-06T15:57:17;2.50;;;2.40;;
18206;SDS011;9229;52.354;20.886;2022-07-06T16:02:20;3.65;;;2.67;;
18206;SDS011;9229;52.354;20.886;2022-07-06T16:07:24;3.03;;;2.83;;
18206;SDS011;9229;52.354;20.886;2022-07-06T16:12:26;4.05;;;3.35;;
18206;SDS011;9229;52.354;20.886;2022-07-06T16:17:29;3.15;;;2.95;;
18206;SDS011;9229;52.354;20.886;2022-07-06T16:22:31;5.63;;;3.33;;
18206;SDS011;9229;52.354;20.886;2022-07-06T16:27:33;3.90;;;3.60;;
18206;SDS011;9229;52.354;20.886;2022-07-06T16:32:38;4.03;;;3.83;;
18206;SDS011;9229;52.354;20.886;2022-07-06T16:37:39;4.65;;;3.80;;
18206;SDS011;9229;52.354;20.886;2022-07-06T16:42:41;4.30;;;4.00;;
18206;SDS011;9229;52.354;20.886;2022-07-06T16:47:45;5.07;;;4.13;;
18206;SDS011;9229;52.354;20.886;2022-07-06T16:52:47;4.05;;;3.30;;
18206;SDS011;9229;52.354;20.886;2022-07-06T16:57:49;3.92;;;3.42;;
18206;SDS011;9229;52.354;20.886;2022-07-06T17:02:52;4.65;;;3.75;;
18206;SDS011;9229;52.354;20.886;2022-07-06T17:07:54;3.88;;;3.15;;
18206;SDS011;9229;52.354;20.886;2022-07-06T17:12:55;3.10;;;2.83;;
18206;SDS011;9229;52.354;20.886;2022-07-06T17:17:59;3.75;;;2.90;;
18206;SDS011;9229;52.354;20.886;2022-07-06T17:23:00;2.42;;;2.33;;
18206;SDS011;9229;52.354;20.886;2022-07-06T17:28:02;3.90;;;2.63;;
18206;SDS011;9229;52.354;20.886;2022-07-06T17:33:07;3.10;;;2.90;;
18206;SDS011;9229;52.354;20.886;2022-07-06T17:38:09;4.47;;;2.80;;
18206;SDS011;9229;52.354;20.886;2022-07-06T17:43:12;2.65;;;2.55;;
18206;SDS011;9229;52.354;20.886;2022-07-06T17:48:15;3.08;;;2.70;;
18206;SDS011;9229;52.354;20.886;2022-07-06T17:53:19;3.08;;;2.90;;
18206;SDS011;9229;52.354;20.886;2022-07-06T17:58:20;2.70;;;2.50;;
18206;SDS011;9229;52.354;20.886;2022-07-06T18:03:23;2.80;;;2.60;;
18206;SDS011;9229;52.354;20.886;2022-07-06T18:08:26;6.25;;;2.75;;
18206;SDS011;9229;52.354;20.886;2022-07-06T18:13:28;3.28;;;3.00;;
18206;SDS011;9229;52.354;20.886;2022-07-06T18:18:32;4.72;;;3.25;;
18206;SDS011;9229;52.354;20.886;2022-07-06T18:23:34;6.55;;;3.17;;
18206;SDS011;9229;52.354;20.886;2022-07-06T18:28:36;3.28;;;2.92;;
18206;SDS011;9229;52.354;20.886;2022-07-06T18:33:39;3.70;;;3.40;;
18206;SDS011;9229;52.354;20.886;2022-07-06T18:38:42;5.03;;;2.78;;
18206;SDS011;9229;52.354;20.886;2022-07-06T18:43:44;2.88;;;2.78;;
18206;SDS011;9229;52.354;20.886;2022-07-06T18:48:48;4.45;;;2.83;;
18206;SDS011;9229;52.354;20.886;2022-07-06T18:53:53;3.38;;;3.17;;
18206;SDS011;9229;52.354;20.886;2022-07-06T18:58:57;8.90;;;3.30;;
18206;SDS011;9229;52.354;20.886;2022-07-06T19:04:00;3.35;;;3.10;;
18206;SDS011;9229;52.354;20.886;2022-07-06T19:09:03;5.07;;;3.33;;
18206;SDS011;9229;52.354;20.886;2022-07-06T19:14:05;3.40;;;3.20;;
18206;SDS011;9229;52.354;20.886;2022-07-06T19:19:11;3.47;;;3.17;;
18206;SDS011;9229;52.354;20.886;2022-07-06T19:24:14;3.58;;;3.08;;
18206;SDS011;9229;52.354;20.886;2022-07-06T19:29:17;3.53;;;3.00;;
18206;SDS011;9229;52.354;20.886;2022-07-06T19:34:23;3.40;;;3.20;;
18206;SDS011;9229;52.354;20.886;2022-07-06T19:39:25;3.85;;;3.58;;
18206;SDS011;9229;52.354;20.886;2022-07-06T19:44:29;7.60;;;3.55;;
18206;SDS011;9229;52.354;20.886;2022-07-06T19:49:33;16.42;;;3.30;;
18206;SDS011;9229;52.354;20.886;2022-07-06T19:54:39;3.17;;;2.97;;
18206;SDS011;9229;52.354;20.886;2022-07-06T19:59:41;3.38;;;3.10;;
18206;SDS011;9229;52.354;20.886;2022-07-06T20:04:44;3.17;;;2.88;;
18206;SDS011;9229;52.354;20.886;2022-07-06T20:09:46;3.28;;;3.08;;
18206;SDS011;9229;52.354;20.886;2022-07-06T20:14:48;2.83;;;2.72;;
18206;SDS011;9229;52.354;20.886;2022-07-06T20:19:52;7.40;;;3.38;;
18206;SDS011;9229;52.354;20.886;2022-07-06T20:24:53;3.70;;;3.20;;
18206;SDS011;9229;52.354;20.886;2022-07-06T20:29:56;6.32;;;3.88;;
18206;SDS011;9229;52.354;20.886;2022-07-06T20:34:59;3.47;;;3.28;;
18206;SDS011;9229;52.354;20.886;2022-07-06T20:40:01;5.55;;;3.65;;
18206;SDS011;9229;52.354;20.886;2022-07-06T20:45:05;4.18;;;3.78;;
18206;SDS011;9229;52.354;20.886;2022-07-06T20:50:09;4.00;;;3.50;;
18206;SDS011;9229;52.354;20.886;2022-07-06T20:55:12;4.15;;;3.80;;
18206;SDS011;9229;52.354;20.886;2022-07-06T21:00:15;3.55;;;3.25;;
18206;SDS011;9229;52.354;20.886;2022-07-06T21:05:21;3.60;;;3.40;;
18206;SDS011;9229;52.354;20.886;2022-07-06T21:10:27;5.18;;;3.92;;
18206;SDS011;9229;52.354;20.886;2022-07-06T21:15:37;4.07;;;3.75;;
18206;SDS011;9229;52.354;20.886;2022-07-06T21:20:42;4.18;;;3.90;;
18206;SDS011;9229;52.354;20.886;2022-07-06T21:25:46;7.05;;;5.28;;
18206;SDS011;9229;52.354;20.886;2022-07-06T21:30:57;7.15;;;6.28;;
18206;SDS011;9229;52.354;20.886;2022-07-06T21:36:00;8.38;;;6.97;;
18206;SDS011;9229;52.354;20.886;2022-07-06T21:41:02;6.72;;;6.10;;
18206;SDS011;9229;52.354;20.886;2022-07-06T21:46:05;5.40;;;4.82;;
18206;SDS011;9229;52.354;20.886;2022-07-06T21:51:09;4.47;;;4.15;;
18206;SDS011;9229;52.354;20.886;2022-07-06T21:56:11;5.30;;;4.28;;
18206;SDS011;9229;52.354;20.886;2022-07-06T22:01:13;3.83;;;3.53;;
18206;SDS011;9229;52.354;20.886;2022-07-06T22:06:16;4.28;;;3.80;;
18206;SDS011;9229;52.354;20.886;2022-07-06T22:11:18;4.93;;;3.90;;
18206;SDS011;9229;52.354;20.886;2022-07-06T22:16:20;5.78;;;4.30;;
18206;SDS011;9229;52.354;20.886;2022-07-06T22:21:26;4.63;;;4.35;;
18206;SDS011;9229;52.354;20.886;2022-07-06T22:26:27;4.53;;;4.28;;
18206;SDS011;9229;52.354;20.886;2022-07-06T22:31:30;4.15;;;3.90;;
18206;SDS011;9229;52.354;20.886;2022-07-06T22:36:33;4.28;;;3.80;;
18206;SDS011;9229;52.354;20.886;2022-07-06T22:41:35;4.95;;;4.22;;
18206;SDS011;9229;52.354;20.886;2022-07-06T22:46:38;4.75;;;4.35;;
18206;SDS011;9229;52.354;20.886;2022-07-06T22:51:41;6.13;;;4.50;;
18206;SDS011;9229;52.354;20.886;2022-07-06T22:56:43;5.53;;;4.30;;
18206;SDS011;9229;52.354;20.886;2022-07-06T23:01:45;4.25;;;3.85;;
18206;SDS011;9229;52.354;20.886;2022-07-06T23:06:48;4.70;;;3.63;;
18206;SDS011;9229;52.354;20.886;2022-07-06T23:11:50;3.85;;;3.45;;
18206;SDS011;9229;52.354;20.886;2022-07-06T23:16:52;3.50;;;3.22;;
18206;SDS011;9229;52.354;20.886;2022-07-06T23:21:55;3.75;;;3.10;;
18206;SDS011;9229;52.354;20.886;2022-07-06T23:26:57;3.50;;;3.30;;
18206;SDS011;9229;52.354;20.886;2022-07-06T23:31:59;3.95;;;3.45;;
18206;SDS011;9229;52.354;20.886;2022-07-06T23:37:02;4.70;;;3.58;;
18206;SDS011;9229;52.354;20.886;2022-07-06T23:42:05;3.70;;;3.47;;
18206;SDS011;9229;52.354;20.886;2022-07-06T23:47:07;3.67;;;3.38;;
18206;SDS011;9229;52.354;20.886;2022-07-06T23:52:11;3.92;;;2.95;;
18206;SDS011;9229;52.354;20.886;2022-07-06T23:57:13;3.90;;;3.22;;
